createdAt,value
2019-03-13T00:02:14.325Z,4.00
2019-03-13T00:04:45.653Z,4.17
2019-03-13T00:07:16.932Z,4.90
2019-03-13T00:09:48.166Z,4.60
2019-03-13T00:12:19.438Z,5.27
2019-03-13T00:14:50.742Z,5.63
2019-03-13T00:17:22.040Z,4.93
2019-03-13T00:19:53.295Z,5.60
2019-03-13T00:22:24.566Z,6.13
2019-03-13T00:24:56.352Z,5.70
2019-03-13T00:27:28.790Z,4.97
2019-03-13T00:30:00.063Z,5.60
2019-03-13T00:32:31.355Z,5.30
2019-03-13T00:35:02.596Z,5.20
2019-03-13T00:37:33.827Z,5.77
2019-03-13T00:40:05.267Z,5.60
2019-03-13T00:42:36.558Z,5.53
2019-03-13T00:45:08.040Z,5.23
2019-03-13T00:47:39.330Z,5.33
2019-03-13T00:50:15.927Z,5.53
2019-03-13T00:52:47.256Z,5.77
2019-03-13T00:55:18.476Z,5.67
2019-03-13T00:57:49.720Z,5.23
2019-03-13T01:00:55.228Z,5.27
2019-03-13T01:03:43.401Z,5.50
2019-03-13T01:06:21.450Z,5.43
2019-03-13T01:08:52.722Z,4.90
2019-03-13T01:11:27.139Z,5.03
2019-03-13T01:13:56.945Z,5.07
2019-03-13T01:16:28.225Z,4.70
2019-03-13T01:18:59.488Z,4.50
2019-03-13T01:21:30.764Z,4.70
2019-03-13T01:24:02.031Z,4.17
2019-03-13T01:26:33.292Z,4.17
2019-03-13T01:29:04.672Z,3.60
2019-03-13T01:31:46.256Z,3.90
2019-03-13T01:34:30.296Z,3.07
2019-03-13T01:37:01.587Z,3.00
2019-03-13T01:39:32.837Z,3.03
2019-03-13T01:42:04.137Z,2.70
2019-03-13T01:44:35.624Z,2.87
2019-03-13T01:47:07.008Z,2.60
2019-03-13T01:49:38.238Z,2.50
2019-03-13T01:52:09.544Z,2.50
2019-03-13T01:54:40.803Z,2.10
2019-03-13T01:57:12.086Z,2.47
2019-03-13T01:59:43.442Z,2.40
2019-03-13T02:02:14.729Z,1.90
2019-03-13T02:04:46.036Z,2.00
2019-03-13T02:07:17.280Z,2.00
2019-03-13T02:09:48.539Z,2.30
2019-03-13T02:12:19.793Z,1.70
2019-03-13T02:14:51.079Z,1.77
2019-03-13T02:17:22.337Z,1.93
2019-03-13T02:19:53.571Z,1.80
2019-03-13T02:22:25.157Z,1.80
2019-03-13T02:24:56.455Z,2.13
2019-03-13T02:27:27.736Z,1.80
2019-03-13T02:29:58.985Z,1.90
2019-03-13T02:32:30.257Z,1.60
2019-03-13T02:35:01.516Z,2.57
2019-03-13T02:37:32.801Z,2.00
2019-03-13T02:40:04.100Z,1.67
2019-03-13T02:42:35.394Z,1.50
2019-03-13T02:45:07.973Z,1.73
2019-03-13T02:47:39.221Z,2.00
2019-03-13T02:50:12.088Z,1.90
2019-03-13T02:52:43.542Z,1.90
2019-03-13T02:55:15.511Z,1.67
2019-03-13T02:57:46.755Z,1.80
2019-03-13T03:00:19.888Z,1.60
2019-03-13T03:02:57.204Z,1.63
2019-03-13T03:05:28.481Z,1.50
2019-03-13T03:07:59.775Z,1.33
2019-03-13T03:10:31.020Z,2.07
2019-03-13T03:13:02.354Z,1.90
2019-03-13T03:15:33.641Z,2.00
2019-03-13T03:18:04.892Z,1.80
2019-03-13T03:20:36.192Z,1.23
2019-03-13T03:23:07.438Z,1.77
2019-03-13T03:25:38.671Z,1.63
2019-03-13T03:28:09.917Z,1.93
2019-03-13T03:30:41.225Z,1.60
2019-03-13T03:33:12.385Z,2.10
2019-03-13T03:35:43.625Z,2.07
2019-03-13T03:38:14.830Z,1.57
2019-03-13T03:40:46.051Z,2.10
2019-03-13T03:43:17.760Z,1.97
2019-03-13T03:45:48.985Z,1.70
2019-03-13T03:48:20.209Z,1.73
2019-03-13T03:50:51.512Z,1.73
2019-03-13T03:53:22.813Z,2.10
2019-03-13T03:55:54.201Z,2.00
2019-03-13T03:58:29.019Z,2.00
2019-03-13T04:00:58.442Z,2.30
2019-03-13T04:03:29.761Z,2.07
2019-03-13T04:06:01.510Z,2.10
2019-03-13T04:08:32.777Z,1.53
2019-03-13T04:11:04.065Z,2.80
2019-03-13T04:13:35.306Z,2.30
2019-03-13T04:16:06.546Z,1.87
2019-03-13T04:18:37.803Z,1.63
2019-03-13T04:21:09.139Z,1.80
2019-03-13T04:23:40.427Z,1.90
2019-03-13T04:26:13.009Z,2.07
2019-03-13T04:28:44.658Z,2.00
2019-03-13T04:31:15.937Z,2.13
2019-03-13T04:33:47.222Z,1.53
2019-03-13T04:36:18.524Z,1.57
2019-03-13T04:38:49.802Z,1.80
2019-03-13T04:41:21.074Z,1.93
2019-03-13T04:43:52.375Z,2.43
2019-03-13T04:46:23.625Z,1.90
2019-03-13T04:48:54.875Z,1.87
2019-03-13T04:51:26.196Z,2.30
2019-03-13T04:53:57.486Z,2.10
2019-03-13T04:56:28.743Z,2.53
2019-03-13T04:59:00.081Z,2.00
2019-03-13T05:01:31.345Z,2.00
2019-03-13T05:04:02.731Z,2.10
2019-03-13T05:06:34.513Z,1.80
2019-03-13T05:09:11.329Z,1.70
2019-03-13T05:11:42.597Z,2.17
2019-03-13T05:14:13.850Z,2.40
2019-03-13T05:16:45.140Z,1.93
2019-03-13T05:19:16.436Z,1.93
2019-03-13T05:21:47.758Z,2.17
2019-03-13T05:24:19.078Z,2.77
2019-03-13T05:26:50.366Z,2.70
2019-03-13T05:29:21.660Z,2.40
2019-03-13T05:31:52.897Z,2.63
2019-03-13T05:34:24.164Z,2.97
2019-03-13T05:36:55.440Z,2.33
2019-03-13T05:39:26.711Z,2.53
2019-03-13T05:41:57.948Z,2.10
2019-03-13T05:44:29.302Z,2.10
2019-03-13T05:47:00.529Z,2.30
2019-03-13T05:49:31.830Z,2.77
2019-03-13T05:52:03.160Z,2.20
2019-03-13T05:54:34.432Z,2.47
2019-03-13T05:57:05.738Z,2.03
2019-03-13T05:59:37.047Z,2.10
2019-03-13T06:02:08.412Z,2.13
2019-03-13T06:04:39.649Z,2.00
2019-03-13T06:07:10.927Z,2.50
2019-03-13T06:09:42.167Z,2.50
2019-03-13T06:12:13.557Z,2.23
2019-03-13T06:14:44.841Z,2.20
2019-03-13T06:17:16.125Z,3.17
2019-03-13T06:19:47.436Z,2.37
2019-03-13T06:22:18.738Z,2.40
2019-03-13T06:24:50.036Z,2.33
2019-03-13T06:27:21.307Z,2.40
2019-03-13T06:29:52.641Z,2.80
2019-03-13T06:32:23.905Z,2.53
2019-03-13T06:34:55.205Z,2.60
2019-03-13T06:37:26.558Z,2.33
2019-03-13T06:39:57.811Z,1.87
2019-03-13T06:42:29.155Z,2.70
2019-03-13T06:45:00.442Z,2.43
2019-03-13T06:47:31.721Z,2.70
2019-03-13T06:50:02.988Z,2.80
2019-03-13T06:52:34.282Z,2.80
2019-03-13T06:55:06.036Z,2.80
2019-03-13T06:57:37.348Z,2.40
2019-03-13T07:00:42.134Z,1.83
2019-03-13T07:03:44.124Z,2.57
2019-03-13T07:06:31.286Z,2.60
2019-03-13T07:09:19.831Z,2.30
2019-03-13T07:12:16.142Z,2.43
2019-03-13T07:15:09.135Z,2.80
2019-03-13T07:17:57.716Z,2.17
2019-03-13T07:20:46.284Z,2.30
2019-03-13T07:23:26.703Z,2.67
2019-03-13T07:26:34.918Z,2.03
2019-03-13T07:29:23.196Z,2.37
2019-03-13T07:32:11.818Z,2.20
2019-03-13T07:35:04.960Z,2.27
2019-03-13T07:38:10.233Z,2.37
2019-03-13T07:41:09.355Z,2.67
2019-03-13T07:43:59.490Z,1.90
2019-03-13T07:46:49.709Z,2.13
2019-03-13T07:49:31.246Z,2.40
2019-03-13T07:52:20.117Z,2.27
2019-03-13T07:55:18.318Z,2.20
2019-03-13T07:58:06.866Z,2.67
2019-03-13T08:01:00.087Z,2.87
2019-03-13T08:03:48.642Z,2.20
2019-03-13T08:06:37.518Z,2.00
2019-03-13T08:09:34.059Z,2.07
2019-03-13T08:12:39.127Z,2.50
2019-03-13T08:15:23.725Z,2.63
2019-03-13T08:18:13.872Z,2.10
2019-03-13T08:21:02.757Z,2.23
2019-03-13T08:23:51.368Z,2.07
2019-03-13T08:26:31.289Z,2.10
2019-03-13T08:29:20.023Z,2.27
2019-03-13T08:32:13.320Z,2.10
2019-03-13T08:35:00.748Z,1.53
2019-03-13T08:37:51.921Z,2.23
2019-03-13T08:40:31.204Z,2.47
2019-03-13T08:43:20.548Z,1.93
2019-03-13T08:46:04.729Z,2.03
2019-03-13T08:48:48.957Z,1.90
2019-03-13T08:51:35.805Z,2.10
2019-03-13T08:54:24.503Z,1.93
2019-03-13T08:57:26.705Z,2.10
2019-03-13T09:00:16.925Z,2.30
2019-03-13T09:03:22.063Z,1.90
2019-03-13T09:06:12.231Z,1.67
2019-03-13T09:09:00.900Z,1.37
2019-03-13T09:12:00.019Z,1.63
2019-03-13T09:14:38.427Z,2.27
2019-03-13T09:17:24.766Z,2.10
2019-03-13T09:20:17.721Z,2.20
2019-03-13T09:23:13.738Z,1.87
2019-03-13T09:26:02.582Z,1.80
2019-03-13T09:28:59.287Z,1.50
2019-03-13T09:31:58.273Z,2.17
2019-03-13T09:34:43.887Z,2.20
2019-03-13T09:37:32.442Z,2.13
2019-03-13T09:40:21.549Z,1.80
2019-03-13T09:43:01.960Z,2.17
2019-03-13T09:46:04.431Z,2.53
2019-03-13T09:49:04.016Z,2.33
2019-03-13T09:52:06.376Z,2.13
2019-03-13T09:54:43.774Z,2.20
2019-03-13T09:57:45.976Z,3.17
2019-03-13T10:00:27.038Z,2.80
2019-03-13T10:03:10.054Z,2.30
2019-03-13T10:05:48.623Z,2.43
2019-03-13T10:08:30.396Z,2.37
2019-03-13T10:11:13.441Z,2.00
2019-03-13T10:14:02.347Z,2.33
2019-03-13T10:16:44.831Z,2.30
2019-03-13T10:19:38.936Z,2.03
2019-03-13T10:22:29.135Z,2.20
2019-03-13T10:25:19.306Z,2.07
2019-03-13T10:28:02.247Z,2.20
2019-03-13T10:31:07.587Z,2.20
2019-03-13T10:34:12.606Z,2.37
2019-03-13T10:37:14.786Z,2.00
2019-03-13T10:39:58.941Z,1.77
2019-03-13T10:42:53.610Z,2.33
2019-03-13T10:45:30.921Z,2.70
2019-03-13T10:48:07.042Z,2.00
2019-03-13T10:51:00.231Z,2.33
2019-03-13T10:53:48.794Z,2.10
2019-03-13T10:56:51.129Z,2.23
2019-03-13T10:59:41.352Z,1.87
2019-03-13T11:02:29.910Z,2.37
2019-03-13T11:05:18.564Z,2.20
2019-03-13T11:08:00.556Z,2.23
2019-03-13T11:10:50.706Z,2.33
2019-03-13T11:13:39.414Z,1.70
2019-03-13T11:16:27.953Z,1.80
2019-03-13T11:19:21.083Z,2.60
2019-03-13T11:22:11.237Z,1.90
2019-03-13T11:24:48.539Z,2.10
2019-03-13T11:27:29.298Z,2.27
2019-03-13T11:30:31.482Z,2.00
2019-03-13T11:33:27.460Z,1.93
2019-03-13T11:36:23.644Z,2.10
2019-03-13T11:39:10.168Z,2.20
2019-03-13T11:41:59.089Z,2.30
2019-03-13T11:45:07.447Z,2.37
2019-03-13T11:47:46.120Z,2.37
2019-03-13T11:50:45.373Z,2.07
2019-03-13T11:53:31.624Z,1.90
2019-03-13T11:56:20.219Z,2.63
2019-03-13T11:59:08.769Z,1.90
2019-03-13T12:02:00.784Z,1.90
2019-03-13T12:04:43.345Z,2.00
2019-03-13T12:07:31.720Z,2.00
2019-03-13T12:10:14.776Z,2.37
2019-03-13T12:13:03.640Z,2.40
2019-03-13T12:15:53.798Z,2.10
2019-03-13T12:18:40.311Z,2.30
2019-03-13T12:21:36.419Z,2.50
2019-03-13T12:24:22.787Z,2.03
2019-03-13T12:27:11.806Z,2.30
2019-03-13T12:30:01.828Z,2.20
2019-03-13T12:32:45.292Z,2.50
2019-03-13T12:35:22.874Z,2.27
2019-03-13T12:38:11.759Z,2.57
2019-03-13T12:41:11.772Z,2.60
2019-03-13T12:43:58.319Z,2.50
2019-03-13T12:46:38.691Z,2.33
2019-03-13T12:49:31.667Z,1.90
2019-03-13T12:52:21.831Z,1.77
2019-03-13T12:55:18.076Z,2.57
2019-03-13T12:57:57.578Z,2.17
2019-03-13T13:00:59.751Z,2.33
2019-03-13T13:03:48.580Z,2.00
2019-03-13T13:06:45.426Z,2.00
2019-03-13T13:09:34.071Z,2.60
2019-03-13T13:12:19.549Z,2.33
2019-03-13T13:15:15.797Z,2.23
2019-03-13T13:18:01.599Z,1.93
2019-03-13T13:20:32.877Z,2.20
2019-03-13T13:23:04.155Z,2.27
2019-03-13T13:25:35.357Z,2.57
2019-03-13T13:28:06.880Z,2.73
2019-03-13T13:30:38.192Z,1.97
2019-03-13T13:33:09.488Z,2.07
2019-03-13T13:35:40.796Z,2.80
2019-03-13T13:38:12.103Z,2.50
2019-03-13T13:40:43.389Z,2.03
2019-03-13T13:43:14.658Z,2.33
2019-03-13T13:46:00.001Z,2.47
2019-03-13T13:48:31.320Z,2.43
2019-03-13T13:51:02.612Z,2.17
2019-03-13T13:53:33.926Z,2.13
2019-03-13T13:56:05.238Z,1.80
2019-03-13T13:58:36.523Z,1.87
2019-03-13T14:01:07.830Z,2.00
2019-03-13T14:03:39.110Z,2.47
2019-03-13T14:06:10.415Z,2.10
2019-03-13T14:08:41.751Z,2.10
2019-03-13T14:11:13.004Z,2.27
2019-03-13T14:13:44.296Z,1.90
2019-03-13T14:16:15.579Z,2.20
2019-03-13T14:18:46.834Z,2.40
2019-03-13T14:21:18.122Z,2.30
2019-03-13T14:23:49.405Z,2.70
2019-03-13T14:26:20.722Z,2.30
2019-03-13T14:28:52.026Z,2.53
2019-03-13T14:31:23.323Z,2.97
2019-03-13T14:33:54.612Z,3.37
2019-03-13T14:36:25.875Z,3.13
2019-03-13T14:38:57.112Z,3.77
2019-03-13T14:41:28.406Z,3.33
2019-03-13T14:43:59.696Z,3.60
2019-03-13T14:46:30.997Z,3.07
2019-03-13T14:49:02.266Z,2.77
2019-03-13T14:51:33.541Z,3.73
2019-03-13T14:54:04.860Z,3.20
2019-03-13T14:56:36.168Z,3.93
2019-03-13T14:59:07.543Z,3.47
2019-03-13T15:01:38.822Z,3.80
2019-03-13T15:04:10.162Z,4.07
2019-03-13T15:06:41.486Z,3.90
2019-03-13T15:09:12.758Z,3.23
2019-03-13T15:11:44.083Z,2.60
2019-03-13T15:14:15.363Z,2.50
2019-03-13T15:16:46.624Z,2.50
2019-03-13T15:19:17.957Z,1.90
2019-03-13T15:21:49.266Z,1.87
2019-03-13T15:24:20.516Z,1.87
2019-03-13T15:26:51.815Z,1.23
2019-03-13T15:29:23.094Z,1.20
2019-03-13T15:31:54.385Z,1.30
2019-03-13T15:34:25.681Z,2.37
2019-03-13T15:36:56.976Z,1.33
2019-03-13T15:39:28.311Z,1.63
2019-03-13T15:41:59.655Z,1.37
2019-03-13T15:44:30.939Z,1.53
2019-03-13T15:47:02.270Z,1.53
2019-03-13T15:49:33.572Z,1.60
2019-03-13T15:52:04.846Z,1.80
2019-03-13T15:54:36.158Z,1.77
2019-03-13T15:57:07.479Z,1.60
2019-03-13T15:59:38.769Z,1.90
2019-03-13T16:02:10.050Z,1.73
2019-03-13T16:04:41.340Z,2.00
2019-03-13T16:07:12.648Z,1.50
2019-03-13T16:09:43.885Z,1.50
2019-03-13T16:12:15.204Z,1.50
2019-03-13T16:14:46.516Z,1.43
2019-03-13T16:17:17.853Z,1.30
2019-03-13T16:19:49.167Z,1.40
2019-03-13T16:22:22.261Z,1.60
2019-03-13T16:24:53.582Z,1.40
2019-03-13T16:27:25.959Z,1.50
2019-03-13T16:29:57.251Z,1.50
2019-03-13T16:32:28.514Z,1.90
2019-03-13T16:34:59.795Z,1.77
2019-03-13T16:37:31.135Z,2.30
2019-03-13T16:40:02.443Z,1.97
2019-03-13T16:42:33.899Z,2.07
2019-03-13T16:45:05.830Z,1.80
2019-03-13T16:47:37.181Z,2.77
2019-03-13T16:50:11.121Z,2.00
2019-03-13T16:52:42.431Z,2.23
2019-03-13T16:55:16.413Z,1.90
2019-03-13T16:57:47.748Z,2.53
2019-03-13T17:00:22.035Z,2.10
2019-03-13T17:02:53.321Z,2.10
2019-03-13T17:05:24.585Z,1.80
2019-03-13T17:07:56.081Z,2.20
2019-03-13T17:10:27.432Z,2.10
2019-03-13T17:12:58.891Z,1.93
2019-03-13T17:15:30.263Z,2.37
2019-03-13T17:18:01.521Z,2.00
2019-03-13T17:20:32.958Z,1.87
2019-03-13T17:23:04.305Z,2.10
2019-03-13T17:25:35.608Z,1.80
2019-03-13T17:28:06.889Z,1.70
2019-03-13T17:30:38.210Z,2.37
2019-03-13T17:33:09.525Z,1.90
2019-03-13T17:35:40.821Z,2.37
2019-03-13T17:38:12.133Z,2.40
2019-03-13T17:40:43.413Z,2.20
2019-03-13T17:43:14.683Z,2.77
2019-03-13T17:45:45.986Z,2.50
2019-03-13T17:48:17.283Z,2.63
2019-03-13T17:50:48.539Z,2.77
2019-03-13T17:53:19.846Z,3.47
2019-03-13T17:55:51.171Z,3.17
2019-03-13T17:58:22.855Z,3.10
2019-03-13T18:00:54.457Z,3.33
2019-03-13T18:03:25.856Z,3.63
2019-03-13T18:05:57.170Z,4.23
2019-03-13T18:08:28.476Z,4.60
2019-03-13T18:11:00.040Z,4.57
2019-03-13T18:13:33.576Z,4.20
2019-03-13T18:16:05.146Z,4.23
2019-03-13T18:18:37.520Z,4.27
2019-03-13T18:21:08.884Z,5.20
2019-03-13T18:23:40.327Z,4.57
2019-03-13T18:26:15.051Z,4.50
2019-03-13T18:28:46.295Z,4.10
2019-03-13T18:31:22.789Z,5.13
2019-03-13T18:33:55.196Z,4.80
2019-03-13T18:36:26.636Z,3.80
2019-03-13T18:38:58.626Z,4.00
2019-03-13T18:41:31.461Z,4.30
2019-03-13T18:44:02.780Z,3.80
2019-03-13T18:46:34.136Z,3.90
2019-03-13T18:49:05.477Z,4.60
2019-03-13T18:51:36.802Z,3.87
2019-03-13T18:54:08.078Z,4.00
2019-03-13T18:56:39.343Z,3.77
2019-03-13T18:59:10.669Z,4.17
2019-03-13T19:01:41.957Z,4.17
2019-03-13T19:04:13.234Z,4.10
2019-03-13T19:06:44.539Z,3.50
2019-03-13T19:09:15.830Z,4.40
2019-03-13T19:11:47.180Z,4.03
2019-03-13T19:14:18.477Z,4.00
2019-03-13T19:16:49.772Z,3.93
2019-03-13T19:19:21.102Z,3.60
2019-03-13T19:21:52.425Z,4.10
2019-03-13T19:24:23.730Z,4.50
2019-03-13T19:26:55.081Z,4.10
2019-03-13T19:29:26.407Z,3.40
2019-03-13T19:31:57.655Z,5.10
2019-03-13T19:34:28.989Z,3.53
2019-03-13T19:37:00.332Z,3.67
2019-03-13T19:39:32.263Z,4.63
2019-03-13T19:42:03.566Z,3.70
2019-03-13T19:44:34.874Z,3.57
2019-03-13T19:47:06.121Z,3.60
2019-03-13T19:49:37.466Z,3.70
2019-03-13T19:52:08.893Z,4.20
2019-03-13T19:54:40.178Z,3.20
2019-03-13T19:57:11.500Z,3.90
2019-03-13T19:59:42.980Z,3.63
2019-03-13T20:02:14.328Z,3.20
2019-03-13T20:04:47.582Z,3.17
2019-03-13T20:07:18.707Z,3.20
2019-03-13T20:09:50.075Z,3.50
2019-03-13T20:12:21.410Z,3.50
2019-03-13T20:14:52.760Z,2.90
2019-03-13T20:17:24.177Z,3.33
2019-03-13T20:19:55.562Z,3.10
2019-03-13T20:22:26.956Z,3.53
2019-03-13T20:24:58.311Z,3.10
2019-03-13T20:27:29.661Z,3.67
2019-03-13T20:30:01.034Z,2.80
2019-03-13T20:32:32.384Z,3.43
2019-03-13T20:35:03.731Z,2.60
2019-03-13T20:37:35.111Z,2.93
2019-03-13T20:40:07.765Z,2.67
2019-03-13T20:42:39.162Z,2.40
2019-03-13T20:45:12.775Z,2.20
2019-03-13T20:47:44.082Z,2.83
2019-03-13T20:50:16.063Z,2.40
2019-03-13T20:52:47.407Z,2.40
2019-03-13T20:55:18.983Z,2.40
2019-03-13T20:57:50.540Z,2.50
2019-03-13T21:00:24.082Z,2.30
2019-03-13T21:02:56.080Z,1.97
2019-03-13T21:05:27.428Z,2.30
2019-03-13T21:07:58.695Z,2.37
2019-03-13T21:10:30.111Z,2.47
2019-03-13T21:13:01.421Z,2.67
2019-03-13T21:15:32.747Z,2.30
2019-03-13T21:18:04.149Z,2.63
2019-03-13T21:20:35.475Z,2.67
2019-03-13T21:23:06.842Z,2.50
2019-03-13T21:25:38.161Z,2.77
2019-03-13T21:28:09.491Z,2.60
2019-03-13T21:30:41.200Z,2.47
2019-03-13T21:33:12.531Z,2.83
2019-03-13T21:35:43.979Z,2.90
2019-03-13T21:38:15.336Z,2.80
2019-03-13T21:40:46.751Z,3.73
2019-03-13T21:43:18.944Z,3.00
2019-03-13T21:45:50.351Z,3.13
2019-03-13T21:48:21.701Z,3.10
2019-03-13T21:50:53.043Z,3.37
2019-03-13T21:53:27.439Z,3.30
2019-03-13T21:55:58.781Z,3.47
2019-03-13T21:58:30.101Z,3.70
2019-03-13T22:01:01.465Z,3.47
2019-03-13T22:03:32.786Z,3.67
2019-03-13T22:06:04.102Z,3.50
2019-03-13T22:08:35.417Z,3.83
2019-03-13T22:11:06.839Z,3.70
2019-03-13T22:13:38.182Z,3.60
2019-03-13T22:16:09.489Z,3.17
2019-03-13T22:18:40.791Z,3.70
2019-03-13T22:21:12.082Z,3.20
2019-03-13T22:23:43.357Z,3.40
2019-03-13T22:26:15.015Z,3.07
2019-03-13T22:28:46.323Z,3.07
2019-03-13T22:31:17.649Z,2.80
2019-03-13T22:33:49.005Z,3.10
2019-03-13T22:36:20.285Z,2.80
2019-03-13T22:38:51.994Z,3.20
2019-03-13T22:41:23.302Z,2.60
2019-03-13T22:43:54.627Z,2.97
2019-03-13T22:46:25.969Z,2.53
2019-03-13T22:48:58.575Z,2.50
2019-03-13T22:51:30.090Z,1.73
2019-03-13T22:54:01.431Z,2.70
2019-03-13T22:56:32.734Z,2.53
2019-03-13T22:59:04.037Z,2.00
2019-03-13T23:01:35.666Z,3.03
2019-03-13T23:04:07.162Z,2.17
2019-03-13T23:06:38.436Z,1.90
2019-03-13T23:09:13.720Z,2.03
2019-03-13T23:11:45.037Z,2.03
2019-03-13T23:14:16.341Z,2.00
2019-03-13T23:16:47.619Z,2.13
2019-03-13T23:19:18.892Z,2.50
2019-03-13T23:21:50.130Z,2.10
2019-03-13T23:24:21.365Z,2.23
2019-03-13T23:26:52.662Z,2.20
2019-03-13T23:29:23.936Z,2.57
2019-03-13T23:31:55.208Z,2.33
2019-03-13T23:34:26.510Z,2.30
2019-03-13T23:36:57.799Z,2.10
2019-03-13T23:39:29.184Z,2.53
2019-03-13T23:42:00.476Z,3.00
2019-03-13T23:44:31.828Z,2.33
2019-03-13T23:47:03.190Z,2.50
2019-03-13T23:49:34.510Z,2.47
2019-03-13T23:52:05.848Z,2.47
2019-03-13T23:54:37.194Z,2.53
2019-03-13T23:57:08.467Z,2.37
2019-03-13T23:59:39.775Z,2.60
